sensor_id;sensor_type;location;lat;lon;timestamp;pressure;altitude;pressure_sealevel;temperature;humidity
22582;BME280;47125;48.542;9.052;2023-01-16T00:00:43;94868.34;;;4.18;65.23
22582;BME280;47125;48.542;9.052;2023-01-16T00:10:47;94862.25;;;4.18;65.31
22582;BME280;47125;48.542;9.052;2023-01-16T00:20:50;94830.91;;;4.21;65.30
22582;BME280;47125;48.542;9.052;2023-01-16T00:30:53;94803.00;;;4.25;65.09
22582;BME280;47125;48.542;9.052;2023-01-16T00:40:56;94796.34;;;4.23;65.47
22582;BME280;47125;48.542;9.052;2023-01-16T00:51:00;94788.91;;;4.31;65.54
22582;BME280;47125;48.542;9.052;2023-01-16T01:01:03;94765.94;;;4.43;64.56
22582;BME280;47125;48.542;9.052;2023-01-16T01:11:09;94752.59;;;4.38;65.11
22582;BME280;47125;48.542;9.052;2023-01-16T01:21:11;94734.78;;;4.45;64.56
22582;BME280;47125;48.542;9.052;2023-01-16T01:31:15;94718.91;;;4.45;64.47
22582;BME280;47125;48.542;9.052;2023-01-16T01:41:18;94715.72;;;4.43;65.12
22582;BME280;47125;48.542;9.052;2023-01-16T01:51:23;94699.84;;;4.43;65.12
22582;BME280;47125;48.542;9.052;2023-01-16T02:01:27;94682.75;;;4.34;65.24
22582;BME280;47125;48.542;9.052;2023-01-16T02:11:33;94638.81;;;4.45;65.30
22582;BME280;47125;48.542;9.052;2023-01-16T02:21:50;94606.09;;;4.34;64.83
22582;BME280;47125;48.542;9.052;2023-01-16T02:32:01;94584.88;;;4.29;66.05
22582;BME280;47125;48.542;9.052;2023-01-16T02:42:08;94564.84;;;4.33;65.77
22582;BME280;47125;48.542;9.052;2023-01-16T02:52:18;94516.88;;;4.25;65.77
22582;BME280;47125;48.542;9.052;2023-01-16T03:02:24;94497.72;;;4.06;65.98
22582;BME280;47125;48.542;9.052;2023-01-16T03:12:29;94467.41;;;4.20;65.14
22582;BME280;47125;48.542;9.052;2023-01-16T03:22:38;94443.03;;;4.18;65.19
22582;BME280;47125;48.542;9.052;2023-01-16T03:32:44;94423.19;;;4.16;64.26
22582;BME280;47125;48.542;9.052;2023-01-16T03:42:50;94403.13;;;4.31;63.97
22582;BME280;47125;48.542;9.052;2023-01-16T03:52:57;94365.75;;;4.39;64.10
22582;BME280;47125;48.542;9.052;2023-01-16T04:03:03;94343.06;;;4.27;63.50
22582;BME280;47125;48.542;9.052;2023-01-16T04:13:09;94313.38;;;4.36;63.46
22582;BME280;47125;48.542;9.052;2023-01-16T04:23:13;94278.69;;;4.33;64.15
22582;BME280;47125;48.542;9.052;2023-01-16T04:33:18;94251.78;;;4.36;64.43
22582;BME280;47125;48.542;9.052;2023-01-16T04:43:21;94212.16;;;4.36;64.26
22582;BME280;47125;48.542;9.052;2023-01-16T04:53:25;94190.53;;;4.39;63.77
22582;BME280;47125;48.542;9.052;2023-01-16T05:03:27;94150.31;;;4.32;63.73
22582;BME280;47125;48.542;9.052;2023-01-16T05:13:31;94128.00;;;4.23;63.96
22582;BME280;47125;48.542;9.052;2023-01-16T05:23:34;94088.19;;;4.29;63.18
22582;BME280;47125;48.542;9.052;2023-01-16T05:33:39;94063.31;;;4.25;62.83
22582;BME280;47125;48.542;9.052;2023-01-16T05:43:42;94043.94;;;4.20;63.51
22582;BME280;47125;48.542;9.052;2023-01-16T05:53:49;94016.22;;;4.01;63.68
22582;BME280;47125;48.542;9.052;2023-01-16T06:03:52;93983.88;;;3.88;64.48
22582;BME280;47125;48.542;9.052;2023-01-16T06:13:56;93939.03;;;3.94;64.44
22582;BME280;47125;48.542;9.052;2023-01-16T06:24:04;93906.47;;;3.83;64.40
22582;BME280;47125;48.542;9.052;2023-01-16T06:34:09;93890.09;;;4.08;63.81
22582;BME280;47125;48.542;9.052;2023-01-16T06:44:11;93860.28;;;4.12;63.80
22582;BME280;47125;48.542;9.052;2023-01-16T06:54:15;93840.28;;;3.89;64.47
22582;BME280;47125;48.542;9.052;2023-01-16T07:04:18;93805.47;;;3.93;64.23
22582;BME280;47125;48.542;9.052;2023-01-16T07:14:22;93794.13;;;3.97;62.91
22582;BME280;47125;48.542;9.052;2023-01-16T07:24:42;93771.84;;;3.83;62.79
22582;BME280;47125;48.542;9.052;2023-01-16T07:34:46;93758.16;;;3.86;63.21
22582;BME280;47125;48.542;9.052;2023-01-16T07:44:48;93737.84;;;3.86;63.74
22582;BME280;47125;48.542;9.052;2023-01-16T07:54:52;93723.28;;;3.84;63.15
22582;BME280;47125;48.542;9.052;2023-01-16T08:04:54;93695.31;;;3.88;62.04
22582;BME280;47125;48.542;9.052;2023-01-16T08:14:58;93670.56;;;3.94;61.77
22582;BME280;47125;48.542;9.052;2023-01-16T08:25:01;93651.03;;;3.90;61.46
22582;BME280;47125;48.542;9.052;2023-01-16T08:35:05;93639.03;;;4.14;61.01
22582;BME280;47125;48.542;9.052;2023-01-16T08:45:08;93633.41;;;4.06;60.29
22582;BME280;47125;48.542;9.052;2023-01-16T08:55:30;93651.03;;;4.37;59.80
22582;BME280;47125;48.542;9.052;2023-01-16T09:05:33;93650.03;;;4.48;58.47
22582;BME280;47125;48.542;9.052;2023-01-16T09:15:37;93669.91;;;4.56;57.90
22582;BME280;47125;48.542;9.052;2023-01-16T09:25:39;93632.19;;;4.75;57.63
22582;BME280;47125;48.542;9.052;2023-01-16T09:35:43;93627.97;;;4.79;58.26
22582;BME280;47125;48.542;9.052;2023-01-16T09:45:46;93627.22;;;4.89;57.23
22582;BME280;47125;48.542;9.052;2023-01-16T09:55:52;93595.00;;;5.12;56.46
22582;BME280;47125;48.542;9.052;2023-01-16T10:06:14;93588.13;;;5.06;55.78
22582;BME280;47125;48.542;9.052;2023-01-16T10:16:21;93546.34;;;5.23;54.33
22582;BME280;47125;48.542;9.052;2023-01-16T10:26:29;93527.00;;;5.53;53.79
22582;BME280;47125;48.542;9.052;2023-01-16T10:36:34;93512.47;;;5.61;53.67
22582;BME280;47125;48.542;9.052;2023-01-16T10:46:38;93508.47;;;5.88;54.25
22582;BME280;47125;48.542;9.052;2023-01-16T10:57:01;93501.78;;;6.01;54.81
22582;BME280;47125;48.542;9.052;2023-01-16T11:07:15;93478.03;;;5.66;59.18
22582;BME280;47125;48.542;9.052;2023-01-16T11:17:22;93444.19;;;5.57;60.36
22582;BME280;47125;48.542;9.052;2023-01-16T11:27:43;93417.47;;;5.49;61.50
22582;BME280;47125;48.542;9.052;2023-01-16T11:37:48;93401.53;;;5.59;63.16
22582;BME280;47125;48.542;9.052;2023-01-16T11:47:52;93370.59;;;5.60;64.05
22582;BME280;47125;48.542;9.052;2023-01-16T11:57:57;93340.59;;;5.74;64.11
22582;BME280;47125;48.542;9.052;2023-01-16T12:08:08;93314.06;;;5.89;63.79
22582;BME280;47125;48.542;9.052;2023-01-16T12:18:24;93295.19;;;6.01;63.41
22582;BME280;47125;48.542;9.052;2023-01-16T12:28:32;93263.28;;;6.21;63.83
22582;BME280;47125;48.542;9.052;2023-01-16T12:38:41;93240.88;;;6.37;62.86
22582;BME280;47125;48.542;9.052;2023-01-16T12:48:52;93203.63;;;6.52;62.25
22582;BME280;47125;48.542;9.052;2023-01-16T12:59:02;93216.25;;;6.65;61.16
22582;BME280;47125;48.542;9.052;2023-01-16T13:09:09;93196.22;;;6.78;61.30
22582;BME280;47125;48.542;9.052;2023-01-16T13:19:20;93150.44;;;7.52;58.20
22582;BME280;47125;48.542;9.052;2023-01-16T13:29:25;93131.19;;;7.79;57.34
22582;BME280;47125;48.542;9.052;2023-01-16T13:39:41;93105.63;;;7.83;55.38
22582;BME280;47125;48.542;9.052;2023-01-16T13:49:50;93111.34;;;7.20;57.36
22582;BME280;47125;48.542;9.052;2023-01-16T13:59:55;93119.41;;;6.92;57.79
22582;BME280;47125;48.542;9.052;2023-01-16T14:20:42;93087.38;;;7.26;57.88
22582;BME280;47125;48.542;9.052;2023-01-16T14:30:45;93076.53;;;7.59;56.93
22582;BME280;47125;48.542;9.052;2023-01-16T14:40:51;93052.03;;;7.11;58.70
22582;BME280;47125;48.542;9.052;2023-01-16T14:51:14;93024.06;;;6.63;60.03
22582;BME280;47125;48.542;9.052;2023-01-16T15:01:39;92977.13;;;6.45;61.25
22582;BME280;47125;48.542;9.052;2023-01-16T15:12:00;92984.13;;;6.36;61.19
22582;BME280;47125;48.542;9.052;2023-01-16T15:22:05;93002.38;;;6.37;61.35
22582;BME280;47125;48.542;9.052;2023-01-16T15:32:19;93012.09;;;6.23;63.66
22582;BME280;47125;48.542;9.052;2023-01-16T15:42:24;93017.41;;;5.99;67.73
22582;BME280;47125;48.542;9.052;2023-01-16T15:52:46;93025.13;;;5.67;71.38
22582;BME280;47125;48.542;9.052;2023-01-16T16:02:52;93023.56;;;5.37;75.96
22582;BME280;47125;48.542;9.052;2023-01-16T16:12:57;93002.22;;;4.90;80.73
22582;BME280;47125;48.542;9.052;2023-01-16T16:23:03;93001.44;;;4.89;80.65
22582;BME280;47125;48.542;9.052;2023-01-16T16:33:13;92990.16;;;4.79;80.61
22582;BME280;47125;48.542;9.052;2023-01-16T16:43:17;92984.16;;;5.02;80.41
22582;BME280;47125;48.542;9.052;2023-01-16T16:53:43;92985.00;;;4.97;80.71
22582;BME280;47125;48.542;9.052;2023-01-16T17:03:49;92990.09;;;4.89;80.33
22582;BME280;47125;48.542;9.052;2023-01-16T17:13:54;92988.28;;;4.79;81.09
22582;BME280;47125;48.542;9.052;2023-01-16T17:23:58;93010.69;;;4.87;82.11
22582;BME280;47125;48.542;9.052;2023-01-16T17:34:00;93019.47;;;4.82;81.94
22582;BME280;47125;48.542;9.052;2023-01-16T17:44:04;93033.69;;;4.91;80.47
22582;BME280;47125;48.542;9.052;2023-01-16T17:54:27;93029.28;;;4.77;80.44
22582;BME280;47125;48.542;9.052;2023-01-16T18:05:00;93038.63;;;4.59;80.51
22582;BME280;47125;48.542;9.052;2023-01-16T18:15:03;93060.16;;;4.81;79.34
22582;BME280;47125;48.542;9.052;2023-01-16T18:25:24;93085.13;;;4.60;79.59
22582;BME280;47125;48.542;9.052;2023-01-16T18:35:26;93082.22;;;4.57;78.67
22582;BME280;47125;48.542;9.052;2023-01-16T18:45:30;93084.81;;;4.67;77.50
22582;BME280;47125;48.542;9.052;2023-01-16T18:55:51;93097.28;;;4.61;77.78
22582;BME280;47125;48.542;9.052;2023-01-16T19:06:13;93110.13;;;4.83;75.76
22582;BME280;47125;48.542;9.052;2023-01-16T19:16:16;93116.97;;;4.89;74.67
22582;BME280;47125;48.542;9.052;2023-01-16T19:26:38;93112.00;;;4.77;74.88
22582;BME280;47125;48.542;9.052;2023-01-16T19:36:43;93128.63;;;4.83;73.38
22582;BME280;47125;48.542;9.052;2023-01-16T19:46:48;93138.91;;;4.89;72.70
22582;BME280;47125;48.542;9.052;2023-01-16T19:56:50;93157.91;;;4.96;72.77
22582;BME280;47125;48.542;9.052;2023-01-16T20:06:54;93169.00;;;4.93;72.24
22582;BME280;47125;48.542;9.052;2023-01-16T20:16:57;93184.38;;;4.91;72.22
22582;BME280;47125;48.542;9.052;2023-01-16T20:27:01;93186.50;;;4.89;72.51
22582;BME280;47125;48.542;9.052;2023-01-16T20:37:06;93197.31;;;4.93;70.88
22582;BME280;47125;48.542;9.052;2023-01-16T20:47:10;93199.38;;;5.06;70.09
22582;BME280;47125;48.542;9.052;2023-01-16T20:57:13;93214.72;;;5.04;68.15
22582;BME280;47125;48.542;9.052;2023-01-16T21:07:17;93213.13;;;5.03;66.70
22582;BME280;47125;48.542;9.052;2023-01-16T21:17:20;93222.66;;;5.04;67.19
22582;BME280;47125;48.542;9.052;2023-01-16T21:27:41;93223.22;;;4.91;66.65
22582;BME280;47125;48.542;9.052;2023-01-16T21:37:44;93218.75;;;4.81;66.39
22582;BME280;47125;48.542;9.052;2023-01-16T21:47:48;93233.81;;;4.81;66.03
22582;BME280;47125;48.542;9.052;2023-01-16T21:57:51;93221.22;;;4.58;67.08
22582;BME280;47125;48.542;9.052;2023-01-16T22:07:55;93227.00;;;4.70;66.98
22582;BME280;47125;48.542;9.052;2023-01-16T22:17:59;93234.97;;;4.50;67.51
22582;BME280;47125;48.542;9.052;2023-01-16T22:28:16;93237.34;;;4.46;67.61
22582;BME280;47125;48.542;9.052;2023-01-16T22:38:20;93240.00;;;4.56;67.76
22582;BME280;47125;48.542;9.052;2023-01-16T22:48:25;93247.66;;;4.48;67.77
22582;BME280;47125;48.542;9.052;2023-01-16T22:58:27;93250.84;;;4.34;68.27
22582;BME280;47125;48.542;9.052;2023-01-16T23:08:31;93255.06;;;4.35;69.15
22582;BME280;47125;48.542;9.052;2023-01-16T23:18:34;93256.66;;;4.31;69.17
22582;BME280;47125;48.542;9.052;2023-01-16T23:28:37;93264.59;;;4.26;69.48
22582;BME280;47125;48.542;9.052;2023-01-16T23:38:40;93281.75;;;4.19;69.52
22582;BME280;47125;48.542;9.052;2023-01-16T23:48:47;93268.53;;;4.19;69.19
22582;BME280;47125;48.542;9.052;2023-01-16T23:58:50;93286.50;;;4.07;69.17
